sensor_id;sensor_type;location;lat;lon;timestamp;temperature;humidity
49441;DHT22;35317;51.978;6.296;2024-01-30T00:01:52;8.50;99.90
49441;DHT22;35317;51.978;6.296;2024-01-30T00:06:53;8.50;99.90
49441;DHT22;35317;51.978;6.296;2024-01-30T00:11:53;8.50;99.90
49441;DHT22;35317;51.978;6.296;2024-01-30T00:16:54;8.50;99.90
49441;DHT22;35317;51.978;6.296;2024-01-30T00:21:55;8.50;99.90
49441;DHT22;35317;51.978;6.296;2024-01-30T00:26:56;8.40;99.90
49441;DHT22;35317;51.978;6.296;2024-01-30T00:31:56;8.40;99.90
49441;DHT22;35317;51.978;6.296;2024-01-30T00:36:57;8.40;99.90
49441;DHT22;35317;51.978;6.296;2024-01-30T00:41:58;8.30;99.90
49441;DHT22;35317;51.978;6.296;2024-01-30T00:46:59;8.30;99.90
49441;DHT22;35317;51.978;6.296;2024-01-30T00:51:59;8.20;99.90
49441;DHT22;35317;51.978;6.296;2024-01-30T00:57:00;8.10;99.90
49441;DHT22;35317;51.978;6.296;2024-01-30T01:02:01;8.10;99.90
49441;DHT22;35317;51.978;6.296;2024-01-30T01:07:02;8.00;99.90
49441;DHT22;35317;51.978;6.296;2024-01-30T01:12:04;8.00;99.90
49441;DHT22;35317;51.978;6.296;2024-01-30T01:17:05;7.90;99.90
49441;DHT22;35317;51.978;6.296;2024-01-30T01:22:05;7.90;99.90
49441;DHT22;35317;51.978;6.296;2024-01-30T01:27:06;7.90;99.90
49441;DHT22;35317;51.978;6.296;2024-01-30T01:32:07;7.90;99.90
49441;DHT22;35317;51.978;6.296;2024-01-30T01:37:08;7.90;99.90
49441;DHT22;35317;51.978;6.296;2024-01-30T01:42:09;7.90;99.90
49441;DHT22;35317;51.978;6.296;2024-01-30T01:47:10;7.80;99.90
49441;DHT22;35317;51.978;6.296;2024-01-30T01:52:11;7.90;99.90
49441;DHT22;35317;51.978;6.296;2024-01-30T01:57:12;7.80;99.90
49441;DHT22;35317;51.978;6.296;2024-01-30T02:02:14;7.80;99.90
49441;DHT22;35317;51.978;6.296;2024-01-30T02:07:18;7.80;99.90
49441;DHT22;35317;51.978;6.296;2024-01-30T02:12:18;7.80;99.90
49441;DHT22;35317;51.978;6.296;2024-01-30T02:17:19;7.80;99.90
49441;DHT22;35317;51.978;6.296;2024-01-30T02:22:20;7.80;99.90
49441;DHT22;35317;51.978;6.296;2024-01-30T02:27:22;7.80;99.90
49441;DHT22;35317;51.978;6.296;2024-01-30T02:32:22;7.80;99.90
49441;DHT22;35317;51.978;6.296;2024-01-30T02:37:23;7.80;99.90
49441;DHT22;35317;51.978;6.296;2024-01-30T02:42:24;7.80;99.90
49441;DHT22;35317;51.978;6.296;2024-01-30T02:47:25;7.70;99.90
49441;DHT22;35317;51.978;6.296;2024-01-30T02:52:26;7.70;99.90
49441;DHT22;35317;51.978;6.296;2024-01-30T02:57:26;7.70;99.90
49441;DHT22;35317;51.978;6.296;2024-01-30T03:02:28;7.70;99.90
49441;DHT22;35317;51.978;6.296;2024-01-30T03:07:28;7.70;99.90
49441;DHT22;35317;51.978;6.296;2024-01-30T03:12:29;7.70;99.90
49441;DHT22;35317;51.978;6.296;2024-01-30T03:17:30;7.60;99.90
49441;DHT22;35317;51.978;6.296;2024-01-30T03:22:30;7.60;99.90
49441;DHT22;35317;51.978;6.296;2024-01-30T03:27:31;7.50;99.90
49441;DHT22;35317;51.978;6.296;2024-01-30T03:32:32;7.50;99.90
49441;DHT22;35317;51.978;6.296;2024-01-30T03:37:33;7.40;99.90
49441;DHT22;35317;51.978;6.296;2024-01-30T03:42:33;7.40;99.90
49441;DHT22;35317;51.978;6.296;2024-01-30T03:47:34;7.40;99.90
49441;DHT22;35317;51.978;6.296;2024-01-30T03:52:35;7.40;99.90
49441;DHT22;35317;51.978;6.296;2024-01-30T03:57:36;7.30;99.90
49441;DHT22;35317;51.978;6.296;2024-01-30T04:02:36;7.30;99.90
49441;DHT22;35317;51.978;6.296;2024-01-30T04:07:37;7.30;99.90
49441;DHT22;35317;51.978;6.296;2024-01-30T04:12:38;7.40;99.90
49441;DHT22;35317;51.978;6.296;2024-01-30T04:17:39;7.40;99.90
49441;DHT22;35317;51.978;6.296;2024-01-30T04:22:40;7.40;99.90
49441;DHT22;35317;51.978;6.296;2024-01-30T04:27:40;7.50;99.90
49441;DHT22;35317;51.978;6.296;2024-01-30T04:32:42;7.60;99.90
49441;DHT22;35317;51.978;6.296;2024-01-30T04:37:43;7.60;99.90
49441;DHT22;35317;51.978;6.296;2024-01-30T04:42:44;7.70;99.90
49441;DHT22;35317;51.978;6.296;2024-01-30T04:47:45;7.80;99.90
49441;DHT22;35317;51.978;6.296;2024-01-30T04:52:46;7.90;99.90
49441;DHT22;35317;51.978;6.296;2024-01-30T04:57:47;7.90;99.90
49441;DHT22;35317;51.978;6.296;2024-01-30T05:02:48;8.00;99.90
49441;DHT22;35317;51.978;6.296;2024-01-30T05:07:49;8.10;99.90
49441;DHT22;35317;51.978;6.296;2024-01-30T05:12:49;8.20;99.90
49441;DHT22;35317;51.978;6.296;2024-01-30T05:17:50;8.20;99.90
49441;DHT22;35317;51.978;6.296;2024-01-30T05:22:51;8.30;99.90
49441;DHT22;35317;51.978;6.296;2024-01-30T05:27:52;8.30;99.90
49441;DHT22;35317;51.978;6.296;2024-01-30T05:32:53;8.30;99.90
49441;DHT22;35317;51.978;6.296;2024-01-30T05:37:54;8.30;99.90
49441;DHT22;35317;51.978;6.296;2024-01-30T05:42:55;8.40;99.90
49441;DHT22;35317;51.978;6.296;2024-01-30T05:47:56;8.40;99.90
49441;DHT22;35317;51.978;6.296;2024-01-30T05:52:57;8.40;99.90
49441;DHT22;35317;51.978;6.296;2024-01-30T05:57:57;8.50;99.90
49441;DHT22;35317;51.978;6.296;2024-01-30T06:02:58;8.50;99.90
49441;DHT22;35317;51.978;6.296;2024-01-30T06:07:59;8.50;99.90
49441;DHT22;35317;51.978;6.296;2024-01-30T06:13:00;8.60;99.90
49441;DHT22;35317;51.978;6.296;2024-01-30T06:18:01;8.60;99.90
49441;DHT22;35317;51.978;6.296;2024-01-30T06:23:01;8.60;99.90
49441;DHT22;35317;51.978;6.296;2024-01-30T06:28:02;8.70;99.90
49441;DHT22;35317;51.978;6.296;2024-01-30T06:33:03;8.60;99.90
49441;DHT22;35317;51.978;6.296;2024-01-30T06:38:04;8.60;99.90
49441;DHT22;35317;51.978;6.296;2024-01-30T06:43:07;8.70;99.90
49441;DHT22;35317;51.978;6.296;2024-01-30T06:48:08;8.70;99.90
49441;DHT22;35317;51.978;6.296;2024-01-30T06:53:09;8.70;99.90
49441;DHT22;35317;51.978;6.296;2024-01-30T06:58:10;8.70;99.90
49441;DHT22;35317;51.978;6.296;2024-01-30T07:03:10;8.80;99.90
49441;DHT22;35317;51.978;6.296;2024-01-30T07:08:11;8.80;99.90
49441;DHT22;35317;51.978;6.296;2024-01-30T07:13:12;8.80;99.90
49441;DHT22;35317;51.978;6.296;2024-01-30T07:18:13;8.80;99.90
49441;DHT22;35317;51.978;6.296;2024-01-30T07:23:14;8.80;99.90
49441;DHT22;35317;51.978;6.296;2024-01-30T07:28:17;8.80;99.90
49441;DHT22;35317;51.978;6.296;2024-01-30T07:33:18;8.80;99.90
49441;DHT22;35317;51.978;6.296;2024-01-30T07:38:19;8.80;99.90
49441;DHT22;35317;51.978;6.296;2024-01-30T07:43:20;8.80;99.90
49441;DHT22;35317;51.978;6.296;2024-01-30T07:48:21;8.90;99.90
49441;DHT22;35317;51.978;6.296;2024-01-30T07:53:22;8.90;99.90
49441;DHT22;35317;51.978;6.296;2024-01-30T07:58:22;8.90;99.90
49441;DHT22;35317;51.978;6.296;2024-01-30T08:03:24;8.90;99.90
49441;DHT22;35317;51.978;6.296;2024-01-30T08:08:25;9.00;99.90
49441;DHT22;35317;51.978;6.296;2024-01-30T08:13:27;9.00;99.90
49441;DHT22;35317;51.978;6.296;2024-01-30T08:18:28;9.10;99.90
49441;DHT22;35317;51.978;6.296;2024-01-30T08:23:29;9.20;99.90
49441;DHT22;35317;51.978;6.296;2024-01-30T08:28:29;9.30;99.90
49441;DHT22;35317;51.978;6.296;2024-01-30T08:33:30;9.30;99.90
49441;DHT22;35317;51.978;6.296;2024-01-30T08:38:31;9.40;99.90
49441;DHT22;35317;51.978;6.296;2024-01-30T08:43:32;9.50;99.90
49441;DHT22;35317;51.978;6.296;2024-01-30T08:48:33;9.60;99.90
49441;DHT22;35317;51.978;6.296;2024-01-30T08:53:34;9.70;99.90
49441;DHT22;35317;51.978;6.296;2024-01-30T08:58:35;9.70;99.90
49441;DHT22;35317;51.978;6.296;2024-01-30T09:03:36;9.80;99.90
49441;DHT22;35317;51.978;6.296;2024-01-30T09:08:40;10.00;99.90
49441;DHT22;35317;51.978;6.296;2024-01-30T09:13:41;10.10;99.90
49441;DHT22;35317;51.978;6.296;2024-01-30T09:18:42;10.40;99.90
49441;DHT22;35317;51.978;6.296;2024-01-30T09:23:42;10.50;99.90
49441;DHT22;35317;51.978;6.296;2024-01-30T09:28:43;10.70;99.90
49441;DHT22;35317;51.978;6.296;2024-01-30T09:33:45;10.90;99.90
49441;DHT22;35317;51.978;6.296;2024-01-30T09:38:47;11.00;99.90
49441;DHT22;35317;51.978;6.296;2024-01-30T09:43:49;11.10;99.90
49441;DHT22;35317;51.978;6.296;2024-01-30T09:48:51;11.20;99.90
49441;DHT22;35317;51.978;6.296;2024-01-30T09:53:54;11.30;99.90
49441;DHT22;35317;51.978;6.296;2024-01-30T09:59:06;11.40;99.90
49441;DHT22;35317;51.978;6.296;2024-01-30T10:04:07;11.40;99.90
49441;DHT22;35317;51.978;6.296;2024-01-30T10:09:08;11.50;99.90
49441;DHT22;35317;51.978;6.296;2024-01-30T10:14:09;11.50;99.90
49441;DHT22;35317;51.978;6.296;2024-01-30T10:19:10;11.50;99.90
49441;DHT22;35317;51.978;6.296;2024-01-30T10:24:11;11.60;99.90
49441;DHT22;35317;51.978;6.296;2024-01-30T10:29:14;11.70;99.90
49441;DHT22;35317;51.978;6.296;2024-01-30T10:34:15;11.80;99.90
49441;DHT22;35317;51.978;6.296;2024-01-30T10:39:17;11.90;99.90
49441;DHT22;35317;51.978;6.296;2024-01-30T10:44:19;12.00;99.90
49441;DHT22;35317;51.978;6.296;2024-01-30T10:49:23;12.10;99.90
49441;DHT22;35317;51.978;6.296;2024-01-30T10:54:25;12.20;99.90
49441;DHT22;35317;51.978;6.296;2024-01-30T10:59:28;12.40;99.90
49441;DHT22;35317;51.978;6.296;2024-01-30T11:04:36;12.40;99.90
49441;DHT22;35317;51.978;6.296;2024-01-30T11:09:37;12.50;99.90
49441;DHT22;35317;51.978;6.296;2024-01-30T11:14:38;12.50;99.90
49441;DHT22;35317;51.978;6.296;2024-01-30T11:19:41;12.50;99.90
49441;DHT22;35317;51.978;6.296;2024-01-30T11:24:42;12.50;99.90
49441;DHT22;35317;51.978;6.296;2024-01-30T11:29:43;12.50;99.90
49441;DHT22;35317;51.978;6.296;2024-01-30T11:34:50;12.60;99.90
49441;DHT22;35317;51.978;6.296;2024-01-30T11:39:51;12.70;99.90
49441;DHT22;35317;51.978;6.296;2024-01-30T11:44:54;12.80;99.90
49441;DHT22;35317;51.978;6.296;2024-01-30T11:49:57;12.90;99.90
49441;DHT22;35317;51.978;6.296;2024-01-30T11:54:58;13.00;99.90
49441;DHT22;35317;51.978;6.296;2024-01-30T11:59:59;13.00;99.90
49441;DHT22;35317;51.978;6.296;2024-01-30T12:05:06;13.10;99.90
49441;DHT22;35317;51.978;6.296;2024-01-30T12:10:08;13.10;99.90
49441;DHT22;35317;51.978;6.296;2024-01-30T12:15:10;13.10;99.90
49441;DHT22;35317;51.978;6.296;2024-01-30T12:20:17;13.10;99.90
49441;DHT22;35317;51.978;6.296;2024-01-30T12:25:20;13.10;99.90
49441;DHT22;35317;51.978;6.296;2024-01-30T12:30:21;13.10;99.90
49441;DHT22;35317;51.978;6.296;2024-01-30T12:35:23;13.20;99.90
49441;DHT22;35317;51.978;6.296;2024-01-30T12:40:26;13.40;99.90
49441;DHT22;35317;51.978;6.296;2024-01-30T12:45:27;13.40;99.90
49441;DHT22;35317;51.978;6.296;2024-01-30T12:50:28;13.40;99.90
49441;DHT22;35317;51.978;6.296;2024-01-30T12:55:29;13.30;99.90
49441;DHT22;35317;51.978;6.296;2024-01-30T13:00:30;13.20;99.90
49441;DHT22;35317;51.978;6.296;2024-01-30T13:05:31;13.30;99.90
49441;DHT22;35317;51.978;6.296;2024-01-30T13:10:32;13.30;99.90
49441;DHT22;35317;51.978;6.296;2024-01-30T13:15:33;13.20;99.90
49441;DHT22;35317;51.978;6.296;2024-01-30T13:20:34;13.10;99.90
49441;DHT22;35317;51.978;6.296;2024-01-30T13:25:35;13.10;99.90
49441;DHT22;35317;51.978;6.296;2024-01-30T13:30:35;13.20;99.90
49441;DHT22;35317;51.978;6.296;2024-01-30T13:35:36;13.20;99.90
49441;DHT22;35317;51.978;6.296;2024-01-30T13:40:37;13.10;99.90
49441;DHT22;35317;51.978;6.296;2024-01-30T13:45:38;12.90;99.90
49441;DHT22;35317;51.978;6.296;2024-01-30T13:50:38;12.70;99.90
49441;DHT22;35317;51.978;6.296;2024-01-30T13:55:39;12.50;99.90
49441;DHT22;35317;51.978;6.296;2024-01-30T14:00:40;12.40;99.90
49441;DHT22;35317;51.978;6.296;2024-01-30T14:05:41;12.30;99.90
49441;DHT22;35317;51.978;6.296;2024-01-30T14:10:41;12.30;99.90
49441;DHT22;35317;51.978;6.296;2024-01-30T14:15:42;12.20;99.90
49441;DHT22;35317;51.978;6.296;2024-01-30T14:20:43;12.00;99.90
49441;DHT22;35317;51.978;6.296;2024-01-30T14:25:44;12.00;99.90
49441;DHT22;35317;51.978;6.296;2024-01-30T14:30:45;12.00;99.90
49441;DHT22;35317;51.978;6.296;2024-01-30T14:35:46;11.90;99.90
49441;DHT22;35317;51.978;6.296;2024-01-30T14:40:47;11.80;99.90
49441;DHT22;35317;51.978;6.296;2024-01-30T14:45:47;11.60;99.90
49441;DHT22;35317;51.978;6.296;2024-01-30T14:50:49;11.40;99.90
49441;DHT22;35317;51.978;6.296;2024-01-30T14:55:50;11.30;99.90
49441;DHT22;35317;51.978;6.296;2024-01-30T15:00:51;11.20;99.90
49441;DHT22;35317;51.978;6.296;2024-01-30T15:05:52;11.20;99.90
49441;DHT22;35317;51.978;6.296;2024-01-30T15:10:55;11.20;99.90
49441;DHT22;35317;51.978;6.296;2024-01-30T15:15:58;11.10;99.90
49441;DHT22;35317;51.978;6.296;2024-01-30T15:20:59;11.00;99.90
49441;DHT22;35317;51.978;6.296;2024-01-30T15:25:59;10.90;99.90
49441;DHT22;35317;51.978;6.296;2024-01-30T15:31:00;10.90;99.90
49441;DHT22;35317;51.978;6.296;2024-01-30T15:36:01;10.80;99.90
49441;DHT22;35317;51.978;6.296;2024-01-30T15:41:02;10.70;99.90
49441;DHT22;35317;51.978;6.296;2024-01-30T15:46:03;10.60;99.90
49441;DHT22;35317;51.978;6.296;2024-01-30T15:51:04;10.60;99.90
49441;DHT22;35317;51.978;6.296;2024-01-30T15:56:05;10.50;99.90
49441;DHT22;35317;51.978;6.296;2024-01-30T16:01:06;10.50;99.90
49441;DHT22;35317;51.978;6.296;2024-01-30T16:06:07;10.50;99.90
49441;DHT22;35317;51.978;6.296;2024-01-30T16:11:08;10.40;99.90
49441;DHT22;35317;51.978;6.296;2024-01-30T16:16:10;10.40;99.90
49441;DHT22;35317;51.978;6.296;2024-01-30T16:21:11;10.40;99.90
49441;DHT22;35317;51.978;6.296;2024-01-30T16:26:14;10.30;99.90
49441;DHT22;35317;51.978;6.296;2024-01-30T16:31:15;10.30;99.90
49441;DHT22;35317;51.978;6.296;2024-01-30T16:36:20;10.30;99.90
49441;DHT22;35317;51.978;6.296;2024-01-30T16:41:21;10.20;99.90
49441;DHT22;35317;51.978;6.296;2024-01-30T16:46:22;10.20;99.90
49441;DHT22;35317;51.978;6.296;2024-01-30T16:51:23;10.10;99.90
49441;DHT22;35317;51.978;6.296;2024-01-30T16:56:24;10.00;99.90
49441;DHT22;35317;51.978;6.296;2024-01-30T17:01:25;10.00;99.90
49441;DHT22;35317;51.978;6.296;2024-01-30T17:06:26;9.90;99.90
49441;DHT22;35317;51.978;6.296;2024-01-30T17:11:27;9.80;99.90
49441;DHT22;35317;51.978;6.296;2024-01-30T17:16:27;9.70;99.90
49441;DHT22;35317;51.978;6.296;2024-01-30T17:21:30;9.70;99.90
49441;DHT22;35317;51.978;6.296;2024-01-30T17:26:34;9.60;99.90
49441;DHT22;35317;51.978;6.296;2024-01-30T17:31:35;9.60;99.90
49441;DHT22;35317;51.978;6.296;2024-01-30T17:36:37;9.60;99.90
49441;DHT22;35317;51.978;6.296;2024-01-30T17:41:38;9.50;99.90
49441;DHT22;35317;51.978;6.296;2024-01-30T17:46:39;9.50;99.90
49441;DHT22;35317;51.978;6.296;2024-01-30T17:51:40;9.50;99.90
49441;DHT22;35317;51.978;6.296;2024-01-30T17:56:40;9.50;99.90
49441;DHT22;35317;51.978;6.296;2024-01-30T18:01:46;9.50;99.90
49441;DHT22;35317;51.978;6.296;2024-01-30T18:06:52;9.40;99.90
49441;DHT22;35317;51.978;6.296;2024-01-30T18:11:54;9.40;99.90
49441;DHT22;35317;51.978;6.296;2024-01-30T18:16:55;9.40;99.90
49441;DHT22;35317;51.978;6.296;2024-01-30T18:21:56;9.40;99.90
49441;DHT22;35317;51.978;6.296;2024-01-30T18:26:57;9.40;99.90
49441;DHT22;35317;51.978;6.296;2024-01-30T18:31:57;9.40;99.90
49441;DHT22;35317;51.978;6.296;2024-01-30T18:36:58;9.30;99.90
49441;DHT22;35317;51.978;6.296;2024-01-30T18:42:01;9.30;99.90
49441;DHT22;35317;51.978;6.296;2024-01-30T18:47:01;9.40;99.90
49441;DHT22;35317;51.978;6.296;2024-01-30T18:52:02;9.30;99.90
49441;DHT22;35317;51.978;6.296;2024-01-30T18:57:05;9.30;99.90
49441;DHT22;35317;51.978;6.296;2024-01-30T19:02:06;9.20;99.90
49441;DHT22;35317;51.978;6.296;2024-01-30T19:07:07;9.10;99.90
49441;DHT22;35317;51.978;6.296;2024-01-30T19:12:08;9.10;99.90
49441;DHT22;35317;51.978;6.296;2024-01-30T19:17:09;9.10;99.90
49441;DHT22;35317;51.978;6.296;2024-01-30T19:22:09;9.10;99.90
49441;DHT22;35317;51.978;6.296;2024-01-30T19:27:10;9.00;99.90
49441;DHT22;35317;51.978;6.296;2024-01-30T19:32:11;9.10;99.90
49441;DHT22;35317;51.978;6.296;2024-01-30T19:37:12;9.10;99.90
49441;DHT22;35317;51.978;6.296;2024-01-30T19:42:13;9.00;99.90
49441;DHT22;35317;51.978;6.296;2024-01-30T19:47:13;9.00;99.90
49441;DHT22;35317;51.978;6.296;2024-01-30T19:52:14;8.90;99.90
49441;DHT22;35317;51.978;6.296;2024-01-30T19:57:15;8.90;99.90
49441;DHT22;35317;51.978;6.296;2024-01-30T20:02:16;8.90;99.90
49441;DHT22;35317;51.978;6.296;2024-01-30T20:07:39;8.80;99.90
49441;DHT22;35317;51.978;6.296;2024-01-30T20:12:40;8.70;99.90
49441;DHT22;35317;51.978;6.296;2024-01-30T20:17:42;8.70;99.90
49441;DHT22;35317;51.978;6.296;2024-01-30T20:22:44;8.70;99.90
49441;DHT22;35317;51.978;6.296;2024-01-30T20:27:47;8.70;99.90
49441;DHT22;35317;51.978;6.296;2024-01-30T20:32:48;8.70;99.90
49441;DHT22;35317;51.978;6.296;2024-01-30T20:37:48;8.60;99.90
49441;DHT22;35317;51.978;6.296;2024-01-30T20:42:50;8.60;99.90
49441;DHT22;35317;51.978;6.296;2024-01-30T20:47:51;8.70;99.90
49441;DHT22;35317;51.978;6.296;2024-01-30T20:52:57;8.60;99.90
49441;DHT22;35317;51.978;6.296;2024-01-30T20:57:58;8.60;99.90
49441;DHT22;35317;51.978;6.296;2024-01-30T21:02:59;8.50;99.90
49441;DHT22;35317;51.978;6.296;2024-01-30T21:07:59;8.50;99.90
49441;DHT22;35317;51.978;6.296;2024-01-30T21:13:00;8.50;99.90
49441;DHT22;35317;51.978;6.296;2024-01-30T21:18:01;8.50;99.90
49441;DHT22;35317;51.978;6.296;2024-01-30T21:23:05;8.50;99.90
49441;DHT22;35317;51.978;6.296;2024-01-30T21:28:06;8.50;99.90
49441;DHT22;35317;51.978;6.296;2024-01-30T21:33:07;8.50;99.90
49441;DHT22;35317;51.978;6.296;2024-01-30T21:38:08;8.40;99.90
49441;DHT22;35317;51.978;6.296;2024-01-30T21:43:09;8.40;99.90
49441;DHT22;35317;51.978;6.296;2024-01-30T21:48:35;8.40;99.90
49441;DHT22;35317;51.978;6.296;2024-01-30T21:54:03;8.40;99.90
49441;DHT22;35317;51.978;6.296;2024-01-30T22:04:54;8.30;99.90
49441;DHT22;35317;51.978;6.296;2024-01-30T22:16:43;8.20;99.90
49441;DHT22;35317;51.978;6.296;2024-01-30T22:21:47;8.20;99.90
49441;DHT22;35317;51.978;6.296;2024-01-30T22:26:48;8.20;99.90
49441;DHT22;35317;51.978;6.296;2024-01-30T22:31:49;8.20;99.90
49441;DHT22;35317;51.978;6.296;2024-01-30T22:36:49;8.20;99.90
49441;DHT22;35317;51.978;6.296;2024-01-30T22:41:50;8.20;99.90
49441;DHT22;35317;51.978;6.296;2024-01-30T22:46:51;8.10;99.90
49441;DHT22;35317;51.978;6.296;2024-01-30T22:51:52;8.00;99.90
49441;DHT22;35317;51.978;6.296;2024-01-30T22:56:52;8.00;99.90
49441;DHT22;35317;51.978;6.296;2024-01-30T23:01:53;7.90;99.90
49441;DHT22;35317;51.978;6.296;2024-01-30T23:06:54;7.90;99.90
49441;DHT22;35317;51.978;6.296;2024-01-30T23:11:55;7.90;99.90
49441;DHT22;35317;51.978;6.296;2024-01-30T23:16:55;7.80;99.90
49441;DHT22;35317;51.978;6.296;2024-01-30T23:21:56;7.80;99.90
49441;DHT22;35317;51.978;6.296;2024-01-30T23:26:57;7.80;99.90
49441;DHT22;35317;51.978;6.296;2024-01-30T23:31:58;7.80;99.90
49441;DHT22;35317;51.978;6.296;2024-01-30T23:36:58;7.70;99.90
49441;DHT22;35317;51.978;6.296;2024-01-30T23:41:59;7.70;99.90
49441;DHT22;35317;51.978;6.296;2024-01-30T23:47:00;7.70;99.90
49441;DHT22;35317;51.978;6.296;2024-01-30T23:52:01;7.70;99.90
49441;DHT22;35317;51.978;6.296;2024-01-30T23:57:02;7.70;99.90
